createdAt,value
2023-04-29T00:02:35.843Z,98958.25
2023-04-29T00:07:39.499Z,98957.22
2023-04-29T00:12:44.449Z,98952.81
2023-04-29T00:17:48.292Z,98952.63
2023-04-29T00:22:52.186Z,98951.75
2023-04-29T00:28:01.848Z,98956.88
2023-04-29T00:33:05.566Z,98956.72
2023-04-29T00:38:09.175Z,98950.56
2023-04-29T00:43:14.152Z,98956.63
2023-04-29T00:48:17.860Z,98967.72
2023-04-29T00:53:23.115Z,98958.34
2023-04-29T00:58:33.358Z,98972.94
2023-04-29T01:03:37.568Z,98958.25
2023-04-29T01:08:53.875Z,98952.97
2023-04-29T01:14:02.226Z,98958.19
2023-04-29T01:19:18.934Z,98953.66
2023-04-29T01:24:23.965Z,98957.81
2023-04-29T01:29:36.715Z,98951.72
2023-04-29T01:34:46.255Z,98955.03
2023-04-29T01:40:02.008Z,98955.06
2023-04-29T01:45:12.696Z,98955.03
2023-04-29T01:50:16.420Z,98952.28
2023-04-29T01:55:21.966Z,98950.25
2023-04-29T02:00:38.197Z,98952.00
2023-04-29T02:05:42.861Z,98956.38
2023-04-29T02:10:55.357Z,98959.03
2023-04-29T02:16:19.413Z,98951.91
2023-04-29T02:21:44.210Z,98951.78
2023-04-29T02:26:49.431Z,98948.34
2023-04-29T02:31:53.161Z,98956.19
2023-04-29T02:36:56.944Z,98961.94
2023-04-29T02:42:01.884Z,98957.72
2023-04-29T02:47:05.324Z,98963.69
2023-04-29T02:52:09.625Z,98965.41
2023-04-29T02:57:15.017Z,98969.06
2023-04-29T03:02:18.845Z,98957.56
2023-04-29T03:07:28.140Z,98958.19
2023-04-29T03:12:33.082Z,98963.28
2023-04-29T03:17:38.778Z,98958.03
2023-04-29T03:22:42.375Z,98954.47
2023-04-29T03:27:48.327Z,98957.06
2023-04-29T03:32:52.021Z,98959.78
2023-04-29T03:37:56.012Z,98955.47
2023-04-29T03:43:06.977Z,98953.81
2023-04-29T03:48:10.746Z,98959.91
2023-04-29T03:53:14.801Z,98960.81
2023-04-29T03:58:20.274Z,98962.56
2023-04-29T04:03:26.115Z,98969.66
2023-04-29T04:08:31.997Z,98969.88
2023-04-29T04:13:46.489Z,98970.09
2023-04-29T04:18:50.792Z,98972.06
2023-04-29T04:23:54.629Z,98979.13
2023-04-29T04:29:01.658Z,98962.19
2023-04-29T04:34:26.429Z,98967.59
2023-04-29T04:39:32.847Z,98960.97
2023-04-29T04:44:37.769Z,98963.00
2023-04-29T04:49:44.168Z,98964.09
2023-04-29T04:54:48.908Z,98952.16
2023-04-29T04:59:59.767Z,98953.22
2023-04-29T05:05:03.469Z,98942.09
2023-04-29T05:10:12.317Z,98951.63
2023-04-29T05:15:27.486Z,98963.81
2023-04-29T05:20:34.645Z,98968.25
2023-04-29T05:25:38.898Z,98964.03
2023-04-29T05:30:45.143Z,98959.75
2023-04-29T05:35:49.518Z,98955.44
2023-04-29T05:40:53.243Z,98952.84
2023-04-29T05:46:17.791Z,98946.78
2023-04-29T05:51:21.652Z,98946.78
2023-04-29T05:56:26.871Z,98942.41
2023-04-29T06:01:34.058Z,98944.06
2023-04-29T06:06:37.877Z,98935.25
2023-04-29T06:12:04.565Z,98935.06
2023-04-29T06:17:09.508Z,98931.56
2023-04-29T06:22:13.358Z,98924.44
2023-04-29T06:27:23.910Z,98927.81
2023-04-29T06:32:28.992Z,98938.03
2023-04-29T06:37:33.241Z,98935.31
2023-04-29T06:43:04.716Z,98928.38
2023-04-29T06:48:28.764Z,98935.22
2023-04-29T06:53:33.626Z,98942.13
2023-04-29T06:58:37.444Z,98932.34
2023-04-29T07:03:42.579Z,98938.00
2023-04-29T07:08:46.599Z,98928.16
2023-04-29T07:13:53.919Z,98935.47
2023-04-29T07:18:58.894Z,98930.44
2023-04-29T07:24:05.031Z,98930.44
2023-04-29T07:29:09.015Z,98928.69
2023-04-29T07:34:13.987Z,98929.50
2023-04-29T07:39:18.371Z,98929.84
2023-04-29T07:44:25.177Z,98928.06
2023-04-29T07:49:30.455Z,98928.44
2023-04-29T07:54:34.390Z,98918.38
2023-04-29T07:59:38.085Z,98921.41
2023-04-29T08:04:43.780Z,98918.69
2023-04-29T08:09:49.573Z,98914.72
2023-04-29T08:14:53.316Z,98906.84
2023-04-29T08:20:00.252Z,98903.56
2023-04-29T08:25:05.221Z,98904.41
2023-04-29T08:30:11.031Z,98900.06
2023-04-29T08:35:16.026Z,98892.75
2023-04-29T08:40:20.130Z,98902.47
2023-04-29T08:45:26.177Z,98895.13
2023-04-29T08:50:31.643Z,98886.63
2023-04-29T08:55:37.234Z,98891.78
2023-04-29T09:00:41.928Z,98886.09
2023-04-29T09:05:50.449Z,98882.34
2023-04-29T09:10:54.442Z,98873.38
2023-04-29T09:15:58.165Z,98870.25
2023-04-29T09:21:14.490Z,98856.06
2023-04-29T09:26:18.136Z,98857.47
2023-04-29T09:31:29.814Z,98858.31
2023-04-29T09:36:46.811Z,98843.25
2023-04-29T09:42:02.669Z,98831.25
2023-04-29T09:47:08.172Z,98830.75
2023-04-29T09:52:16.632Z,98827.41
2023-04-29T09:57:20.354Z,98811.91
2023-04-29T10:02:25.625Z,98818.47
2023-04-29T10:07:31.447Z,98806.88
2023-04-29T10:12:36.829Z,98810.06
2023-04-29T10:17:47.791Z,98805.75
2023-04-29T10:22:54.861Z,98806.38
2023-04-29T10:28:01.722Z,98800.53
2023-04-29T10:33:06.504Z,98803.97
2023-04-29T10:38:18.917Z,98800.41
2023-04-29T10:43:25.557Z,98785.31
2023-04-29T10:48:29.032Z,98786.31
2023-04-29T10:53:34.363Z,98788.84
2023-04-29T10:58:39.918Z,98773.84
2023-04-29T11:03:55.282Z,98773.09
2023-04-29T11:09:04.972Z,98767.63
2023-04-29T11:14:10.515Z,98763.63
2023-04-29T11:19:17.049Z,98758.88
2023-04-29T11:24:22.477Z,98766.28
2023-04-29T11:29:26.798Z,98759.69
2023-04-29T11:34:30.223Z,98759.56
2023-04-29T11:39:37.124Z,98748.94
2023-04-29T11:44:40.703Z,98747.75
2023-04-29T11:49:44.100Z,98745.38
2023-04-29T11:54:49.154Z,98736.59
2023-04-29T11:59:53.618Z,98727.75
2023-04-29T12:04:57.973Z,98726.13
2023-04-29T12:10:05.089Z,98721.97
2023-04-29T12:15:11.318Z,98699.53
2023-04-29T12:20:15.885Z,98700.06
2023-04-29T12:25:22.350Z,98697.69
2023-04-29T12:30:26.898Z,98693.25
2023-04-29T12:35:31.712Z,98690.16
2023-04-29T12:40:36.721Z,98686.72
2023-04-29T12:45:40.776Z,98686.16
2023-04-29T12:50:44.235Z,98685.16
2023-04-29T12:55:50.963Z,98692.13
2023-04-29T13:02:08.549Z,98687.44
2023-04-29T13:07:13.833Z,98679.66
2023-04-29T13:12:20.841Z,98689.38
2023-04-29T13:17:25.902Z,98675.91
2023-04-29T13:22:31.814Z,98676.63
2023-04-29T13:27:39.539Z,98675.56
2023-04-29T13:32:51.642Z,98673.38
2023-04-29T13:38:01.809Z,98673.13
2023-04-29T13:43:09.716Z,98671.81
2023-04-29T13:48:44.245Z,98669.03
2023-04-29T13:54:05.675Z,98678.34
2023-04-29T13:59:41.612Z,98668.78
2023-04-29T14:04:40.450Z,98662.63
2023-04-29T14:09:45.538Z,98664.72
2023-04-29T14:15:00.508Z,98664.41
2023-04-29T14:20:12.666Z,98665.94
2023-04-29T14:25:19.613Z,98653.00
2023-04-29T14:30:30.395Z,98656.13
2023-04-29T14:35:40.128Z,98656.66
2023-04-29T14:40:51.864Z,98654.41
2023-04-29T14:45:58.768Z,98651.09
2023-04-29T14:51:02.874Z,98660.06
2023-04-29T14:56:08.022Z,98647.66
2023-04-29T15:01:16.499Z,98642.72
2023-04-29T15:06:21.635Z,98647.50
2023-04-29T15:11:27.406Z,98642.81
2023-04-29T15:16:40.096Z,98641.97
2023-04-29T15:22:12.593Z,98638.59
2023-04-29T15:27:17.274Z,98640.75
2023-04-29T15:32:23.064Z,98634.56
2023-04-29T15:37:28.328Z,98639.50
2023-04-29T15:42:35.819Z,98646.44
2023-04-29T16:10:03.875Z,98640.94
2023-04-29T16:22:06.832Z,98630.56
2023-04-29T16:27:15.682Z,98634.28
2023-04-29T16:32:28.779Z,98643.59
2023-04-29T16:37:36.187Z,98639.03
2023-04-29T16:42:43.664Z,98642.13
2023-04-29T16:47:49.945Z,98647.66
2023-04-29T16:52:55.955Z,98643.34
2023-04-29T16:58:08.145Z,98639.31
2023-04-29T17:03:29.216Z,98645.72
2023-04-29T17:08:50.039Z,98647.75
2023-04-29T17:14:04.662Z,98650.66
2023-04-29T17:19:12.136Z,98652.63
2023-04-29T17:24:37.457Z,98654.88
2023-04-29T17:30:08.372Z,98661.59
2023-04-29T17:35:36.190Z,98665.75
2023-04-29T17:40:57.204Z,98665.88
2023-04-29T17:46:45.365Z,98670.25
2023-04-29T17:52:14.512Z,98673.25
2023-04-29T18:03:06.506Z,98684.03
2023-04-29T18:08:09.981Z,98684.47
2023-04-29T18:13:13.780Z,98684.66
2023-04-29T18:18:19.617Z,98685.47
2023-04-29T18:23:23.485Z,98685.50
2023-04-29T18:28:29.040Z,98683.97
2023-04-29T18:33:33.888Z,98682.88
2023-04-29T18:38:38.179Z,98688.47
2023-04-29T18:43:42.067Z,98682.38
2023-04-29T18:48:47.242Z,98683.19
2023-04-29T18:53:52.417Z,98686.53
2023-04-29T18:58:56.660Z,98682.34
2023-04-29T19:04:04.579Z,98683.31
2023-04-29T19:09:08.494Z,98685.28
2023-04-29T19:14:11.897Z,98685.28
2023-04-29T19:19:17.088Z,98681.03
2023-04-29T19:24:20.509Z,98688.72
2023-04-29T19:29:24.147Z,98680.00
2023-04-29T19:34:29.293Z,98672.25
2023-04-29T19:39:33.849Z,98674.94
2023-04-29T19:44:37.317Z,98668.09
2023-04-29T19:49:42.264Z,98663.69
2023-04-29T19:54:45.997Z,98661.97
2023-04-29T19:59:49.432Z,98661.91
2023-04-29T20:04:54.513Z,98647.13
2023-04-29T20:09:57.941Z,98648.13
2023-04-29T20:15:01.722Z,98645.63
2023-04-29T20:20:09.277Z,98647.41
2023-04-29T20:25:13.008Z,98642.16
2023-04-29T20:30:16.410Z,98635.16
2023-04-29T20:35:22.236Z,98633.50
2023-04-29T20:40:25.705Z,98630.00
2023-04-29T20:45:29.726Z,98639.50
2023-04-29T20:50:34.857Z,98639.47
2023-04-29T20:55:38.325Z,98633.44
2023-04-29T21:00:42.258Z,98637.16
2023-04-29T21:05:47.579Z,98630.28
2023-04-29T21:10:51.187Z,98629.41
2023-04-29T21:15:54.655Z,98619.84
2023-04-29T21:20:59.666Z,98619.03
2023-04-29T21:26:03.257Z,98618.22
2023-04-29T21:31:06.755Z,98617.53
2023-04-29T21:36:11.699Z,98616.66
2023-04-29T21:41:22.743Z,98616.59
2023-04-29T21:46:28.274Z,98613.94
2023-04-29T21:51:34.635Z,98607.84
2023-04-29T21:56:38.359Z,98608.72
2023-04-29T22:01:48.603Z,98610.44
2023-04-29T22:06:53.740Z,98599.22
2023-04-29T22:11:57.164Z,98599.25
2023-04-29T22:17:00.923Z,98586.22
2023-04-29T22:22:06.182Z,98583.63
2023-04-29T22:27:09.727Z,98573.31
2023-04-29T22:32:13.491Z,98567.25
2023-04-29T22:37:18.825Z,98569.88
2023-04-29T22:42:22.286Z,98562.19
2023-04-29T22:47:26.339Z,98560.53
2023-04-29T22:52:32.828Z,98565.69
2023-04-29T22:57:36.294Z,98559.66
2023-04-29T23:02:40.654Z,98546.72
2023-04-29T23:07:45.685Z,98550.19
2023-04-29T23:12:49.128Z,98550.19
2023-04-29T23:17:52.963Z,98537.19
2023-04-29T23:22:58.153Z,98532.03
2023-04-29T23:28:01.578Z,98536.34
2023-04-29T23:33:05.350Z,98532.03
2023-04-29T23:38:10.177Z,98532.03
2023-04-29T23:43:15.074Z,98534.63
2023-04-29T23:48:18.578Z,98528.59
2023-04-29T23:53:23.705Z,98529.47
2023-04-29T23:58:27.242Z,98528.59
